createdAt,value
2022-12-20T00:00:51.414Z,1008.7
2022-12-20T00:05:57.527Z,1008.6
2022-12-20T00:11:03.631Z,1008.6
2022-12-20T00:16:08.722Z,1008.8
2022-12-20T00:21:14.818Z,1008.8
2022-12-20T00:26:20.930Z,1008.9
2022-12-20T00:31:27.030Z,1009
2022-12-20T00:36:33.140Z,1009
2022-12-20T00:41:39.245Z,1009
2022-12-20T00:46:45.320Z,1008.9
2022-12-20T00:51:50.436Z,1008.8
2022-12-20T00:56:56.512Z,1008.7
2022-12-20T01:02:02.608Z,1008.8
2022-12-20T01:07:08.706Z,1008.7
2022-12-20T01:12:14.815Z,1008.5
2022-12-20T01:17:20.925Z,1008.4
2022-12-20T01:22:27.009Z,1008.5
2022-12-20T01:27:33.098Z,1008.7
2022-12-20T01:32:39.200Z,1008.8
2022-12-20T01:37:45.305Z,1008.8
2022-12-20T01:42:51.386Z,1008.8
2022-12-20T01:47:57.496Z,1008.7
2022-12-20T01:53:03.590Z,1008.7
2022-12-20T01:58:08.699Z,1008.8
2022-12-20T02:03:14.790Z,1008.7
2022-12-20T02:08:20.897Z,1008.6
2022-12-20T02:13:26.977Z,1008.5
2022-12-20T02:18:33.089Z,1008.4
2022-12-20T02:23:39.178Z,1008.4
2022-12-20T02:28:45.290Z,1008.3
2022-12-20T02:33:51.383Z,1008.3
2022-12-20T02:38:57.479Z,1008.2
2022-12-20T02:44:03.570Z,1008.2
2022-12-20T02:49:09.671Z,1008.1
2022-12-20T02:54:15.765Z,1008.1
2022-12-20T02:59:21.855Z,1008
2022-12-20T03:04:26.971Z,1008
2022-12-20T03:09:33.097Z,1008.1
2022-12-20T03:14:39.166Z,1008
2022-12-20T03:19:45.265Z,1008
2022-12-20T03:24:51.369Z,1008
2022-12-20T03:29:57.458Z,1008
2022-12-20T03:35:03.557Z,1007.9
2022-12-20T03:40:09.651Z,1007.8
2022-12-20T03:45:15.803Z,1007.8
2022-12-20T03:50:21.852Z,1007.8
2022-12-20T03:55:27.943Z,1007.8
2022-12-20T04:00:34.055Z,1007.7
2022-12-20T04:05:40.139Z,1007.8
2022-12-20T04:10:45.261Z,1007.7
2022-12-20T04:15:51.345Z,1007.7
2022-12-20T04:20:57.456Z,1007.7
2022-12-20T04:26:03.556Z,1007.6
2022-12-20T04:31:09.638Z,1007.6
2022-12-20T04:36:15.728Z,1007.6
2022-12-20T04:41:21.845Z,1007.7
2022-12-20T04:46:27.941Z,1007.6
2022-12-20T04:51:34.045Z,1007.5
2022-12-20T04:56:40.142Z,1007.6
2022-12-20T05:01:46.230Z,1007.7
2022-12-20T05:06:52.320Z,1007.6
2022-12-20T05:11:58.424Z,1007.7
2022-12-20T05:17:03.518Z,1007.6
2022-12-20T05:22:09.626Z,1007.5
2022-12-20T05:27:15.723Z,1007.6
2022-12-20T05:32:21.822Z,1007.5
2022-12-20T05:37:27.908Z,1007.4
2022-12-20T05:42:34.011Z,1007.4
2022-12-20T05:47:40.106Z,1007.3
2022-12-20T05:52:46.214Z,1007.2
2022-12-20T05:57:52.311Z,1007.2
2022-12-20T06:02:58.416Z,1007.1
2022-12-20T06:08:04.497Z,1007
2022-12-20T06:13:10.595Z,1007.2
2022-12-20T06:18:16.699Z,1007.2
2022-12-20T06:23:21.804Z,1007.2
2022-12-20T06:28:27.909Z,1007.3
2022-12-20T06:33:34.004Z,1007.1
2022-12-20T06:38:40.146Z,1007.2
2022-12-20T06:43:46.289Z,1006.9
2022-12-20T06:48:52.290Z,1006.9
2022-12-20T06:53:58.376Z,1007.2
2022-12-20T06:59:04.507Z,1007.1
2022-12-20T07:04:10.583Z,1007.1
2022-12-20T07:09:16.683Z,1007.3
2022-12-20T07:14:22.801Z,1007.4
2022-12-20T07:19:29.090Z,1007.6
2022-12-20T07:24:35.127Z,1007.6
2022-12-20T07:29:40.287Z,1007.6
2022-12-20T07:34:46.370Z,1007.5
2022-12-20T07:39:52.479Z,1007.5
2022-12-20T07:44:58.540Z,1007.6
2022-12-20T07:50:04.478Z,1007.6
2022-12-20T07:55:10.582Z,1007.6
2022-12-20T08:00:16.654Z,1007.4
2022-12-20T08:05:22.767Z,1007.5
2022-12-20T08:10:28.863Z,1007.4
2022-12-20T08:15:34.954Z,1007.3
2022-12-20T08:20:41.051Z,1007.3
2022-12-20T08:25:47.157Z,1007.4
2022-12-20T08:30:53.258Z,1007.4
2022-12-20T08:35:58.372Z,1007.3
2022-12-20T08:41:04.468Z,1007.2
2022-12-20T08:46:10.573Z,1007.1
2022-12-20T08:51:16.656Z,1007.1
2022-12-20T08:56:22.749Z,1007.2
2022-12-20T09:01:28.854Z,1007.1
2022-12-20T09:06:35.047Z,1007.3
2022-12-20T09:11:41.037Z,1007.3
2022-12-20T09:16:47.152Z,1007.3
2022-12-20T09:21:53.242Z,1007.3
2022-12-20T09:26:59.344Z,1007.1
2022-12-20T09:32:05.451Z,1007.1
2022-12-20T09:37:11.527Z,1007.1
2022-12-20T09:42:16.642Z,1007.1
2022-12-20T09:47:22.742Z,1007.1
2022-12-20T09:52:28.824Z,1006.9
2022-12-20T09:57:34.933Z,1006.7
2022-12-20T10:02:41.033Z,1006.5
2022-12-20T10:07:47.111Z,1006.4
2022-12-20T10:12:53.213Z,1006.2
2022-12-20T10:17:59.320Z,1006.1
2022-12-20T10:23:05.411Z,1006.1
2022-12-20T10:28:11.515Z,1006.2
2022-12-20T10:33:17.624Z,1006.2
2022-12-20T10:38:23.716Z,1006.3
2022-12-20T10:43:29.808Z,1006.3
2022-12-20T10:48:34.959Z,1006.2
2022-12-20T10:53:41.009Z,1006.2
2022-12-20T10:58:47.103Z,1006.2
2022-12-20T11:03:53.370Z,1006.3
2022-12-20T11:08:59.287Z,1006.2
2022-12-20T11:14:05.386Z,1006.2
2022-12-20T11:19:11.509Z,1006.1
2022-12-20T11:24:17.567Z,1006
2022-12-20T11:29:23.702Z,1005.9
2022-12-20T11:34:29.778Z,1005.8
2022-12-20T11:39:35.872Z,1005.7
2022-12-20T11:44:41.973Z,1005.8
2022-12-20T11:49:48.064Z,1005.6
2022-12-20T11:54:53.171Z,1005.6
2022-12-20T11:59:59.257Z,1005.6
2022-12-20T12:05:05.374Z,1005.4
2022-12-20T12:10:11.477Z,1005.3
2022-12-20T12:15:17.551Z,1005.4
2022-12-20T12:20:23.662Z,1005.2
2022-12-20T12:25:29.759Z,1005.1
2022-12-20T12:30:35.841Z,1005
2022-12-20T12:35:41.965Z,1004.9
2022-12-20T12:40:48.048Z,1004.9
2022-12-20T12:45:54.142Z,1004.9
2022-12-20T12:51:00.231Z,1005
2022-12-20T12:56:06.325Z,1005
2022-12-20T13:01:11.438Z,1004.8
2022-12-20T13:06:17.562Z,1004.8
2022-12-20T13:11:23.623Z,1004.9
2022-12-20T13:16:29.720Z,1004.9
2022-12-20T13:21:35.816Z,1004.9
2022-12-20T13:26:41.919Z,1004.9
2022-12-20T13:31:48.027Z,1004.7
2022-12-20T13:36:54.130Z,1004.7
2022-12-20T13:42:00.269Z,1004.6
2022-12-20T13:47:06.307Z,1004.6
2022-12-20T13:52:12.403Z,1004.6
2022-12-20T13:57:18.526Z,1004.5
2022-12-20T14:02:24.591Z,1004.5
2022-12-20T14:07:29.716Z,1004.4
2022-12-20T14:12:35.801Z,1004.3
2022-12-20T14:17:41.900Z,1004.4
2022-12-20T14:22:48.006Z,1004.3
2022-12-20T14:27:54.105Z,1004.3
2022-12-20T14:33:00.198Z,1004.3
2022-12-20T14:38:06.307Z,1004.2
2022-12-20T14:43:12.432Z,1004
2022-12-20T14:48:18.497Z,1004.1
2022-12-20T14:53:24.592Z,1004
2022-12-20T14:58:30.686Z,1004
2022-12-20T15:03:36.770Z,1003.9
2022-12-20T15:08:42.873Z,1004
2022-12-20T15:13:47.985Z,1004
2022-12-20T15:18:54.077Z,1003.9
2022-12-20T15:24:00.176Z,1004
2022-12-20T15:29:06.271Z,1003.9
2022-12-20T15:34:12.382Z,1003.8
2022-12-20T15:39:18.471Z,1003.7
2022-12-20T15:44:24.621Z,1003.6
2022-12-20T15:49:30.683Z,1003.6
2022-12-20T15:54:36.808Z,1003.6
2022-12-20T15:59:42.866Z,1003.8
2022-12-20T16:04:48.971Z,1003.7
2022-12-20T16:09:55.071Z,1003.8
2022-12-20T16:15:01.171Z,1003.7
2022-12-20T16:20:06.279Z,1003.5
2022-12-20T16:25:12.365Z,1003.4
2022-12-20T16:30:18.470Z,1003.3
2022-12-20T16:35:24.568Z,1003.3
2022-12-20T16:40:30.669Z,1003.2
2022-12-20T16:45:36.754Z,1003.2
2022-12-20T16:50:42.861Z,1003.2
2022-12-20T16:55:48.941Z,1003.3
2022-12-20T17:00:55.060Z,1003.3
2022-12-20T17:06:01.147Z,1003.3
2022-12-20T17:11:07.219Z,1003.3
2022-12-20T17:16:13.337Z,1003.2
2022-12-20T17:21:19.445Z,1003.3
2022-12-20T17:26:24.546Z,1003.2
2022-12-20T17:31:30.646Z,1003.2
2022-12-20T17:36:36.728Z,1003.4
2022-12-20T17:41:42.841Z,1003.3
2022-12-20T17:46:48.914Z,1003.5
2022-12-20T17:51:55.023Z,1003.4
2022-12-20T17:57:00.150Z,1003.6
2022-12-20T18:02:06.231Z,1003.6
2022-12-20T18:07:12.350Z,1003.5
2022-12-20T18:12:18.435Z,1003.4
2022-12-20T18:17:24.531Z,1003.5
2022-12-20T18:22:30.616Z,1003.6
2022-12-20T18:27:36.710Z,1003.6
2022-12-20T18:32:42.835Z,1003.6
2022-12-20T18:37:48.981Z,1003.5
2022-12-20T18:42:55.086Z,1003.6
2022-12-20T18:48:01.119Z,1003.3
2022-12-20T18:53:07.201Z,1003.3
2022-12-20T18:58:13.352Z,1003.1
2022-12-20T19:03:18.429Z,1003
2022-12-20T19:08:24.509Z,1003.1
2022-12-20T19:13:30.679Z,1003
2022-12-20T19:18:36.711Z,1003
2022-12-20T19:23:42.810Z,1003.2
2022-12-20T19:28:48.893Z,1003.1
2022-12-20T19:33:55.003Z,1003.1
2022-12-20T19:39:01.103Z,1003.1
2022-12-20T19:44:07.205Z,1003
2022-12-20T19:49:13.295Z,1003
2022-12-20T19:54:19.389Z,1003
2022-12-20T19:59:25.472Z,1003.1
2022-12-20T20:04:31.574Z,1003
2022-12-20T20:09:36.691Z,1002.9
2022-12-20T20:14:42.795Z,1002.9
2022-12-20T20:19:48.895Z,1003.1
2022-12-20T20:24:54.980Z,1003
2022-12-20T20:30:01.168Z,1002.9
2022-12-20T20:35:07.192Z,1002.8
2022-12-20T20:40:13.296Z,1002.8
2022-12-20T20:45:19.374Z,1002.7
2022-12-20T20:50:25.469Z,1002.7
2022-12-20T20:55:31.566Z,1002.6
2022-12-20T21:00:37.652Z,1002.6
2022-12-20T21:05:43.756Z,1002.6
2022-12-20T21:10:49.848Z,1002.4
2022-12-20T21:15:54.951Z,1002.4
2022-12-20T21:21:01.052Z,1002.3
2022-12-20T21:26:07.156Z,1002.3
2022-12-20T21:31:13.297Z,1002.4
2022-12-20T21:36:19.347Z,1002.5
2022-12-20T21:41:25.455Z,1002.5
2022-12-20T21:46:31.546Z,1002.3
2022-12-20T21:51:37.679Z,1002.6
2022-12-20T21:56:43.734Z,1002.6
2022-12-20T22:01:49.817Z,1002.7
2022-12-20T22:06:55.931Z,1002.7
2022-12-20T22:12:02.012Z,1002.6
2022-12-20T22:17:08.116Z,1002.6
2022-12-20T22:22:13.215Z,1002.7
2022-12-20T22:27:19.387Z,1002.6
2022-12-20T22:32:25.420Z,1002.8
2022-12-20T22:37:31.516Z,1002.7
2022-12-20T22:42:37.675Z,1002.7
2022-12-20T22:47:43.687Z,1002.6
2022-12-20T22:52:49.792Z,1002.6
2022-12-20T22:57:55.925Z,1002.6
2022-12-20T23:03:02.019Z,1002.5
2022-12-20T23:08:08.152Z,1002.5
2022-12-20T23:13:14.190Z,1002.5
2022-12-20T23:18:20.272Z,1002.4
2022-12-20T23:23:26.386Z,1002.3
2022-12-20T23:28:31.480Z,1002.3
2022-12-20T23:33:37.665Z,1002.3
2022-12-20T23:38:43.684Z,1002.2
2022-12-20T23:43:49.781Z,1002.1
2022-12-20T23:48:55.882Z,1002.1
2022-12-20T23:54:01.977Z,1002
2022-12-20T23:59:08.071Z,1002
